CES5450 ZPPP-ZUCK
Flight info
| Callsign | CES5450 |
|---|---|
| Flight time | 0h 43m |
| Altitude | 26600 |
| Route | DADOL4Q DADOL W144 ZAT W145 IDSID W30 URGUS W91 EGARA W3 ASIPO/K0813S0780 W678 SEGDA SEGDD2 |
| Aircraft | B738/M-SDE2E3FGHIRWXY/LB1 |
Departure
| Time | 2026-05-04 18:48 |
|---|---|
| Airport | Kunming Changshui International Airport (ZPPP) |
Arrival
| Time | 2026-05-04 19:31 |
|---|---|
| Airport | Chongqing Jiangbei International Airport (ZUCK) |
| Time | Latitude | Longitude | Altitude | Speed | Heading |
|---|---|---|---|---|---|
| 2026-05-04 18:24 | 25.09865 | 102.93058 | 6897 ft | 0 kts | 219° |
| 2026-05-04 18:38 | 25.09876 | 102.93067 | 6896 ft | 4 kts | 219° |
| 2026-05-04 18:38 | 25.09897 | 102.93086 | 6896 ft | 4 kts | 219° |
| 2026-05-04 18:38 | 25.09916 | 102.93102 | 6896 ft | 4 kts | 199° |
| 2026-05-04 18:39 | 25.09938 | 102.93101 | 6896 ft | 4 kts | 137° |
| 2026-05-04 18:39 | 25.09950 | 102.93086 | 6897 ft | 1 kts | 129° |
| 2026-05-04 18:39 | 25.09952 | 102.93084 | 6897 ft | 0 kts | 129° |
| 2026-05-04 18:41 | 25.09947 | 102.93091 | 6897 ft | 4 kts | 127° |
| 2026-05-04 18:41 | 25.09916 | 102.93135 | 6896 ft | 10 kts | 128° |
| 2026-05-04 18:42 | 25.09858 | 102.93216 | 6896 ft | 17 kts | 128° |
| 2026-05-04 18:42 | 25.09772 | 102.93332 | 6895 ft | 22 kts | 130° |
| 2026-05-04 18:42 | 25.09722 | 102.93486 | 6894 ft | 24 kts | 43° |
| 2026-05-04 18:42 | 25.09862 | 102.93607 | 6893 ft | 27 kts | 38° |
| 2026-05-04 18:43 | 25.10019 | 102.93744 | 6893 ft | 30 kts | 38° |
| 2026-05-04 18:43 | 25.10192 | 102.93893 | 6892 ft | 33 kts | 38° |
| 2026-05-04 18:43 | 25.10378 | 102.94053 | 6892 ft | 35 kts | 38° |
| 2026-05-04 18:43 | 25.10572 | 102.94228 | 6892 ft | 37 kts | 35° |
| 2026-05-04 18:44 | 25.10780 | 102.94405 | 6890 ft | 38 kts | 38° |
| 2026-05-04 18:44 | 25.10917 | 102.94522 | 6890 ft | 37 kts | 38° |
| 2026-05-04 18:44 | 25.11168 | 102.94743 | 6890 ft | 33 kts | 39° |
| 2026-05-04 18:44 | 25.11341 | 102.94891 | 6889 ft | 30 kts | 36° |
| 2026-05-04 18:45 | 25.11499 | 102.95030 | 6889 ft | 28 kts | 38° |
| 2026-05-04 18:45 | 25.11648 | 102.95161 | 6887 ft | 26 kts | 38° |
| 2026-05-04 18:45 | 25.11787 | 102.95280 | 6887 ft | 24 kts | 38° |
| 2026-05-04 18:45 | 25.11876 | 102.95408 | 6887 ft | 20 kts | 112° |
| 2026-05-04 18:46 | 25.11775 | 102.95499 | 6886 ft | 19 kts | 180° |
| 2026-05-04 18:46 | 25.11742 | 102.95483 | 6886 ft | 0 kts | 216° |
| 2026-05-04 18:47 | 25.11734 | 102.95478 | 6886 ft | 10 kts | 216° |
| 2026-05-04 18:47 | 25.11488 | 102.95264 | 6887 ft | 79 kts | 219° |
| 2026-05-04 18:47 | 25.10889 | 102.94742 | 6889 ft | 139 kts | 218° |
| 2026-05-04 18:47 | 25.10002 | 102.93976 | 7003 ft | 178 kts | 219° |
| 2026-05-04 18:48 | 25.09125 | 102.92987 | 7556 ft | 193 kts | 239° |
| 2026-05-04 18:48 | 25.08360 | 102.91707 | 8089 ft | 206 kts | 219° |
| 2026-05-04 18:48 | 25.07107 | 102.90921 | 8667 ft | 211 kts | 213° |
| 2026-05-04 18:48 | 25.05819 | 102.89981 | 8873 ft | 233 kts | 218° |
| 2026-05-04 18:49 | 25.04649 | 102.88709 | 9055 ft | 249 kts | 245° |
| 2026-05-04 18:49 | 25.04404 | 102.86841 | 9506 ft | 252 kts | 281° |
| 2026-05-04 18:49 | 25.05169 | 102.85083 | 9952 ft | 267 kts | 308° |
| 2026-05-04 18:49 | 25.06714 | 102.83769 | 10211 ft | 294 kts | 332° |
| 2026-05-04 18:50 | 25.08754 | 102.83143 | 10416 ft | 325 kts | 350° |
| 2026-05-04 18:50 | 25.11147 | 102.83358 | 10566 ft | 358 kts | 11° |
| 2026-05-04 18:50 | 25.13552 | 102.84195 | 10906 ft | 375 kts | 16° |
| 2026-05-04 18:50 | 25.16001 | 102.85146 | 11601 ft | 369 kts | 16° |
| 2026-05-04 18:51 | 25.18411 | 102.86082 | 12517 ft | 366 kts | 15° |
| 2026-05-04 18:51 | 25.20884 | 102.86996 | 12792 ft | 383 kts | 14° |
| 2026-05-04 18:51 | 25.23458 | 102.87900 | 13250 ft | 392 kts | 14° |
| 2026-05-04 18:51 | 25.26077 | 102.88790 | 13884 ft | 395 kts | 14° |
| 2026-05-04 18:52 | 25.28718 | 102.89671 | 14490 ft | 397 kts | 13° |
| 2026-05-04 18:52 | 25.31367 | 102.90541 | 15057 ft | 399 kts | 13° |
| 2026-05-04 18:52 | 25.34042 | 102.91412 | 15583 ft | 402 kts | 13° |
| 2026-05-04 18:52 | 25.36736 | 102.92285 | 16098 ft | 404 kts | 13° |
| 2026-05-04 18:53 | 25.39447 | 102.93163 | 16644 ft | 407 kts | 13° |
| 2026-05-04 18:53 | 25.42173 | 102.94047 | 17168 ft | 410 kts | 13° |
| 2026-05-04 18:53 | 25.44919 | 102.94937 | 17701 ft | 412 kts | 13° |
| 2026-05-04 18:53 | 25.47640 | 102.95819 | 18208 ft | 414 kts | 13° |
| 2026-05-04 18:54 | 25.50413 | 102.96725 | 18631 ft | 418 kts | 13° |
| 2026-05-04 18:54 | 25.53222 | 102.97627 | 18971 ft | 422 kts | 13° |
| 2026-05-04 18:54 | 25.56047 | 102.98541 | 19405 ft | 423 kts | 13° |
| 2026-05-04 18:54 | 25.58876 | 102.99464 | 19824 ft | 425 kts | 13° |
| 2026-05-04 18:55 | 25.61726 | 103.00395 | 20214 ft | 428 kts | 13° |
| 2026-05-04 18:55 | 25.67484 | 103.02276 | 21055 ft | 432 kts | 13° |
| 2026-05-04 18:55 | 25.70365 | 103.03231 | 21524 ft | 433 kts | 12° |
| 2026-05-04 18:56 | 25.73281 | 103.04180 | 21744 ft | 439 kts | 12° |
| 2026-05-04 18:56 | 25.76223 | 103.05133 | 22052 ft | 442 kts | 12° |
| 2026-05-04 18:56 | 25.79184 | 103.06096 | 22426 ft | 444 kts | 12° |
| 2026-05-04 18:56 | 25.82156 | 103.07066 | 22762 ft | 446 kts | 12° |
| 2026-05-04 18:57 | 25.85104 | 103.08026 | 23104 ft | 449 kts | 12° |
| 2026-05-04 18:57 | 25.88113 | 103.09008 | 23455 ft | 451 kts | 12° |
| 2026-05-04 18:57 | 25.91132 | 103.09996 | 23788 ft | 452 kts | 12° |
| 2026-05-04 18:57 | 25.94151 | 103.10985 | 24058 ft | 453 kts | 11° |
| 2026-05-04 18:58 | 25.97187 | 103.11977 | 24365 ft | 455 kts | 12° |
| 2026-05-04 18:58 | 26.00230 | 103.12984 | 24668 ft | 455 kts | 12° |
| 2026-05-04 18:58 | 26.03269 | 103.13939 | 24919 ft | 455 kts | 10° |
| 2026-05-04 18:58 | 26.06328 | 103.14906 | 25160 ft | 459 kts | 11° |
| 2026-05-04 18:59 | 26.09398 | 103.15923 | 25407 ft | 461 kts | 11° |
| 2026-05-04 18:59 | 26.12484 | 103.16956 | 25645 ft | 464 kts | 11° |
| 2026-05-04 18:59 | 26.15580 | 103.17994 | 25902 ft | 466 kts | 11° |
| 2026-05-04 18:59 | 26.18686 | 103.19030 | 26277 ft | 465 kts | 11° |
| 2026-05-04 19:00 | 26.21785 | 103.20059 | 26646 ft | 465 kts | 11° |
| 2026-05-04 19:00 | 26.24844 | 103.21068 | 26812 ft | 465 kts | 11° |
| 2026-05-04 19:00 | 26.27965 | 103.22119 | 26819 ft | 470 kts | 11° |
| 2026-05-04 19:00 | 26.31090 | 103.23259 | 26801 ft | 476 kts | 18° |
| 2026-05-04 19:01 | 26.33998 | 103.25095 | 26813 ft | 483 kts | 31° |
| 2026-05-04 19:01 | 26.36552 | 103.27567 | 26811 ft | 489 kts | 41° |
| 2026-05-04 19:01 | 26.38714 | 103.30533 | 26791 ft | 495 kts | 51° |
| 2026-05-04 19:01 | 26.40674 | 103.33694 | 26803 ft | 496 kts | 51° |
| 2026-05-04 19:02 | 26.42596 | 103.36843 | 26792 ft | 496 kts | 51° |
| 2026-05-04 19:02 | 26.44538 | 103.40028 | 26800 ft | 496 kts | 51° |
| 2026-05-04 19:02 | 26.46492 | 103.43211 | 26782 ft | 496 kts | 51° |
| 2026-05-04 19:02 | 26.48451 | 103.46373 | 26778 ft | 496 kts | 51° |
| 2026-05-04 19:03 | 26.50419 | 103.49535 | 26785 ft | 496 kts | 51° |
| 2026-05-04 19:03 | 26.52396 | 103.52698 | 26801 ft | 496 kts | 50° |
| 2026-05-04 19:03 | 26.54376 | 103.55864 | 26788 ft | 497 kts | 50° |
| 2026-05-04 19:03 | 26.56358 | 103.59031 | 26778 ft | 497 kts | 50° |
| 2026-05-04 19:04 | 26.58334 | 103.62194 | 26760 ft | 496 kts | 50° |
| 2026-05-04 19:04 | 26.60310 | 103.65359 | 26756 ft | 496 kts | 50° |
| 2026-05-04 19:04 | 26.62279 | 103.68517 | 26762 ft | 496 kts | 50° |
| 2026-05-04 19:04 | 26.64252 | 103.71683 | 26755 ft | 496 kts | 50° |
| 2026-05-04 19:05 | 26.66224 | 103.74851 | 26765 ft | 496 kts | 50° |
| 2026-05-04 19:05 | 26.68190 | 103.78020 | 26762 ft | 496 kts | 51° |
| 2026-05-04 19:05 | 26.70136 | 103.81152 | 26715 ft | 496 kts | 50° |
| 2026-05-04 19:05 | 26.72098 | 103.84312 | 26750 ft | 495 kts | 50° |
| 2026-05-04 19:06 | 26.77591 | 103.93184 | 26815 ft | 496 kts | 50° |
| 2026-05-04 19:06 | 26.85472 | 104.05902 | 26772 ft | 497 kts | 50° |
| 2026-05-04 19:06 | 26.93342 | 104.18634 | 26716 ft | 497 kts | 51° |
| 2026-05-04 19:06 | 27.01202 | 104.31414 | 26705 ft | 497 kts | 51° |
| 2026-05-04 19:07 | 27.09029 | 104.44173 | 26686 ft | 496 kts | 50° |
| 2026-05-04 19:07 | 27.16839 | 104.56942 | 26657 ft | 496 kts | 50° |
| 2026-05-04 19:07 | 27.24611 | 104.69699 | 26636 ft | 493 kts | 50° |
| 2026-05-04 19:07 | 27.32369 | 104.82393 | 26679 ft | 491 kts | 50° |
| 2026-05-04 19:08 | 27.40070 | 104.95115 | 26633 ft | 492 kts | 50° |
| 2026-05-04 19:08 | 27.47765 | 105.07877 | 26600 ft | 492 kts | 50° |
| 2026-05-04 19:08 | 27.55474 | 105.20647 | 26621 ft | 492 kts | 50° |
| 2026-05-04 19:08 | 27.63156 | 105.33379 | 26608 ft | 492 kts | 50° |
| 2026-05-04 19:09 | 27.70821 | 105.46198 | 26636 ft | 493 kts | 50° |
| 2026-05-04 19:09 | 27.78464 | 105.58836 | 26679 ft | 493 kts | 50° |
| 2026-05-04 19:09 | 27.83945 | 105.73355 | 26683 ft | 508 kts | 66° |
| 2026-05-04 19:09 | 27.88805 | 105.88375 | 26630 ft | 509 kts | 64° |
| 2026-05-04 19:10 | 27.93814 | 106.03382 | 26657 ft | 511 kts | 64° |
| 2026-05-04 19:10 | 27.98775 | 106.18469 | 26678 ft | 512 kts | 63° |
| 2026-05-04 19:10 | 28.03824 | 106.33570 | 26655 ft | 513 kts | 64° |
| 2026-05-04 19:10 | 28.08812 | 106.48688 | 26722 ft | 510 kts | 64° |
| 2026-05-04 19:11 | 28.13790 | 106.63744 | 26649 ft | 509 kts | 62° |
| 2026-05-04 19:11 | 28.22294 | 106.74797 | 26643 ft | 455 kts | 10° |
| 2026-05-04 19:11 | 28.34294 | 106.74864 | 26732 ft | 429 kts | 348° |
| 2026-05-04 19:11 | 28.46131 | 106.73056 | 26681 ft | 428 kts | 346° |
| 2026-05-04 19:12 | 28.57978 | 106.71225 | 26630 ft | 431 kts | 347° |
| 2026-05-04 19:12 | 28.81743 | 106.68866 | 26577 ft | 415 kts | 333° |
| 2026-05-04 19:12 | 28.89441 | 106.59625 | 26703 ft | 409 kts | 307° |
| 2026-05-04 19:13 | 28.96589 | 106.49609 | 25559 ft | 397 kts | 309° |
| 2026-05-04 19:13 | 29.03445 | 106.40090 | 23402 ft | 375 kts | 309° |
| 2026-05-04 19:13 | 29.09841 | 106.31071 | 21877 ft | 347 kts | 310° |
| 2026-05-04 19:13 | 29.15608 | 106.22916 | 21409 ft | 314 kts | 310° |
| 2026-05-04 19:14 | 29.20870 | 106.15469 | 20928 ft | 287 kts | 310° |
| 2026-05-04 19:14 | 29.26715 | 106.09891 | 20186 ft | 275 kts | 333° |
| 2026-05-04 19:14 | 29.32323 | 106.06726 | 19260 ft | 277 kts | 342° |
| 2026-05-04 19:14 | 29.34227 | 106.06314 | 18964 ft | 277 kts | 348° |
| 2026-05-04 19:15 | 29.36121 | 106.05930 | 18653 ft | 276 kts | 346° |
| 2026-05-04 19:15 | 29.37996 | 106.05499 | 18367 ft | 274 kts | 346° |
| 2026-05-04 19:15 | 29.39845 | 106.05091 | 18045 ft | 275 kts | 352° |
| 2026-05-04 19:15 | 29.41761 | 106.05155 | 17762 ft | 276 kts | 1° |
| 2026-05-04 19:16 | 29.43667 | 106.05337 | 17455 ft | 274 kts | 1° |
| 2026-05-04 19:16 | 29.45564 | 106.05503 | 17161 ft | 272 kts | 1° |
| 2026-05-04 19:16 | 29.47447 | 106.05657 | 16862 ft | 270 kts | 1° |
| 2026-05-04 19:16 | 29.49309 | 106.05916 | 16570 ft | 271 kts | 12° |
| 2026-05-04 19:17 | 29.51088 | 106.06655 | 16317 ft | 271 kts | 17° |
| 2026-05-04 19:17 | 29.52843 | 106.07437 | 16035 ft | 270 kts | 17° |
| 2026-05-04 19:17 | 29.54592 | 106.08196 | 15754 ft | 269 kts | 17° |
| 2026-05-04 19:17 | 29.56341 | 106.08947 | 15484 ft | 268 kts | 17° |
| 2026-05-04 19:18 | 29.58023 | 106.09878 | 15197 ft | 271 kts | 31° |
| 2026-05-04 19:18 | 29.59532 | 106.11178 | 14950 ft | 270 kts | 32° |
| 2026-05-04 19:18 | 29.61016 | 106.12454 | 14654 ft | 270 kts | 34° |
| 2026-05-04 19:18 | 29.62493 | 106.13768 | 14403 ft | 267 kts | 34° |
| 2026-05-04 19:19 | 29.63974 | 106.15062 | 14129 ft | 267 kts | 34° |
| 2026-05-04 19:19 | 29.65279 | 106.16573 | 13961 ft | 266 kts | 50° |
| 2026-05-04 19:19 | 29.66357 | 106.18286 | 13730 ft | 264 kts | 50° |
| 2026-05-04 19:19 | 29.67434 | 106.19997 | 13467 ft | 264 kts | 54° |
| 2026-05-04 19:20 | 29.68057 | 106.22001 | 13189 ft | 275 kts | 84° |
| 2026-05-04 19:20 | 29.67749 | 106.24191 | 12914 ft | 286 kts | 113° |
| 2026-05-04 19:20 | 29.67017 | 106.25462 | 12692 ft | 292 kts | 135° |
| 2026-05-04 19:20 | 29.65338 | 106.26786 | 12449 ft | 293 kts | 151° |
| 2026-05-04 19:21 | 29.63539 | 106.27895 | 12139 ft | 293 kts | 153° |
| 2026-05-04 19:21 | 29.61735 | 106.28975 | 11851 ft | 292 kts | 153° |
| 2026-05-04 19:21 | 29.59935 | 106.30057 | 11558 ft | 291 kts | 153° |
| 2026-05-04 19:21 | 29.58146 | 106.31141 | 11283 ft | 290 kts | 153° |
| 2026-05-04 19:22 | 29.56366 | 106.32229 | 10991 ft | 289 kts | 153° |
| 2026-05-04 19:22 | 29.54612 | 106.33306 | 10715 ft | 285 kts | 153° |
| 2026-05-04 19:22 | 29.52864 | 106.34382 | 10439 ft | 284 kts | 153° |
| 2026-05-04 19:22 | 29.51125 | 106.35454 | 10152 ft | 284 kts | 153° |
| 2026-05-04 19:23 | 29.49390 | 106.36527 | 9912 ft | 281 kts | 153° |
| 2026-05-04 19:23 | 29.41703 | 106.41319 | 9032 ft | 260 kts | 149° |
| 2026-05-04 19:23 | 29.37968 | 106.47557 | 8068 ft | 246 kts | 90° |
| 2026-05-04 19:23 | 29.37700 | 106.51325 | 7595 ft | 252 kts | 98° |
| 2026-05-04 19:24 | 29.37895 | 106.53300 | 7345 ft | 251 kts | 62° |
| 2026-05-04 19:24 | 29.39041 | 106.54675 | 7250 ft | 244 kts | 27° |
| 2026-05-04 19:24 | 29.40630 | 106.55370 | 6983 ft | 246 kts | 18° |
| 2026-05-04 19:24 | 29.42266 | 106.55973 | 6741 ft | 247 kts | 17° |
| 2026-05-04 19:25 | 29.43917 | 106.56562 | 6481 ft | 248 kts | 17° |
| 2026-05-04 19:25 | 29.45553 | 106.57156 | 6223 ft | 243 kts | 17° |
| 2026-05-04 19:25 | 29.47137 | 106.57697 | 6140 ft | 239 kts | 16° |
| 2026-05-04 19:25 | 29.48750 | 106.58246 | 5852 ft | 244 kts | 17° |
| 2026-05-04 19:26 | 29.50393 | 106.58815 | 5539 ft | 249 kts | 17° |
| 2026-05-04 19:26 | 29.52063 | 106.59395 | 5228 ft | 252 kts | 17° |
| 2026-05-04 19:26 | 29.53740 | 106.59977 | 4877 ft | 248 kts | 18° |
| 2026-05-04 19:26 | 29.55325 | 106.60561 | 4538 ft | 238 kts | 19° |
| 2026-05-04 19:27 | 29.56859 | 106.61155 | 4282 ft | 226 kts | 16° |
| 2026-05-04 19:27 | 29.58374 | 106.61285 | 4021 ft | 205 kts | 4° |
| 2026-05-04 19:27 | 29.59641 | 106.61802 | 3777 ft | 184 kts | 28° |
| 2026-05-04 19:27 | 29.60780 | 106.62374 | 3504 ft | 175 kts | 22° |
| 2026-05-04 19:28 | 29.61945 | 106.62827 | 3273 ft | 176 kts | 19° |
| 2026-05-04 19:28 | 29.63113 | 106.63245 | 3032 ft | 174 kts | 19° |
| 2026-05-04 19:28 | 29.64239 | 106.63632 | 2836 ft | 168 kts | 19° |
| 2026-05-04 19:28 | 29.65350 | 106.64018 | 2618 ft | 166 kts | 19° |
| 2026-05-04 19:29 | 29.66466 | 106.64405 | 2404 ft | 169 kts | 19° |
| 2026-05-04 19:29 | 29.67572 | 106.64790 | 2126 ft | 160 kts | 19° |
| 2026-05-04 19:29 | 29.68605 | 106.65152 | 1963 ft | 158 kts | 17° |
| 2026-05-04 19:29 | 29.69652 | 106.65532 | 1720 ft | 156 kts | 19° |
| 2026-05-04 19:30 | 29.70671 | 106.65895 | 1531 ft | 151 kts | 15° |
| 2026-05-04 19:30 | 29.71669 | 106.66226 | 1357 ft | 147 kts | 16° |
| 2026-05-04 19:30 | 29.72583 | 106.66544 | 1330 ft | 126 kts | 15° |
| 2026-05-04 19:30 | 29.73288 | 106.66781 | 1322 ft | 64 kts | 17° |
| 2026-05-04 19:31 | 29.73473 | 106.66845 | 1319 ft | 7 kts | 15° |
| 2026-05-04 19:31 | 29.73534 | 106.66857 | 1318 ft | 9 kts | 340° |
| 2026-05-04 19:31 | 29.73556 | 106.66766 | 1319 ft | 16 kts | 280° |
| 2026-05-04 19:31 | 29.73557 | 106.66754 | 1319 ft | 0 kts | 280° |
| 2026-05-04 19:32 | 29.73563 | 106.66736 | 1319 ft | 7 kts | 292° |
| 2026-05-04 19:32 | 29.73540 | 106.66660 | 1321 ft | 16 kts | 191° |
| 2026-05-04 19:32 | 29.73377 | 106.66610 | 1322 ft | 31 kts | 197° |
| 2026-05-04 19:32 | 29.73157 | 106.66533 | 1325 ft | 35 kts | 197° |
| 2026-05-04 19:33 | 29.72929 | 106.66455 | 1328 ft | 34 kts | 196° |
| 2026-05-04 19:33 | 29.72685 | 106.66375 | 1328 ft | 39 kts | 196° |
| 2026-05-04 19:33 | 29.72415 | 106.66281 | 1330 ft | 42 kts | 197° |
| 2026-05-04 19:33 | 29.72145 | 106.66185 | 1332 ft | 39 kts | 198° |
| 2026-05-04 19:34 | 29.71895 | 106.66096 | 1335 ft | 36 kts | 197° |
| 2026-05-04 19:34 | 29.71824 | 106.65967 | 1336 ft | 21 kts | 289° |
| 2026-05-04 19:34 | 29.71869 | 106.65810 | 1338 ft | 20 kts | 285° |
| 2026-05-04 19:34 | 29.71907 | 106.65655 | 1345 ft | 20 kts | 287° |
| 2026-05-04 19:35 | 29.71948 | 106.65506 | 1346 ft | 19 kts | 288° |
| 2026-05-04 19:35 | 29.71989 | 106.65362 | 1347 ft | 19 kts | 285° |
| 2026-05-04 19:35 | 29.72029 | 106.65204 | 1353 ft | 21 kts | 286° |
| 2026-05-04 19:35 | 29.72071 | 106.65043 | 1353 ft | 21 kts | 287° |
| 2026-05-04 19:36 | 29.72005 | 106.64969 | 1353 ft | 15 kts | 194° |
| 2026-05-04 19:36 | 29.71909 | 106.64938 | 1355 ft | 14 kts | 198° |
| 2026-05-04 19:36 | 29.71868 | 106.64923 | 1354 ft | 5 kts | 197° |
| 2026-05-04 19:36 | 29.71800 | 106.64900 | 1354 ft | 17 kts | 196° |
| 2026-05-04 19:37 | 29.71716 | 106.64900 | 1354 ft | 9 kts | 127° |
| 2026-05-04 19:37 | 29.71705 | 106.64953 | 1353 ft | 0 kts | 100° |
| 2026-05-04 19:37 | 29.71704 | 106.64958 | 1354 ft | 0 kts | 99° |